Terminal Aerodrome Forecast
Issued by NWS Sterling, VA

Current Version | Previous Version | Graphics & Text | Print | Product List | Glossary Off
Versions: 1 2 3 4 5 6 7 8 9 10 11 12 13

000
FTUS41 KLWX 201100
TAFMRB
TAF
KMRB 201137Z 2012/2112 VRB03KT 3SM BR BKN025
     FM201300 VRB03KT P6SM BKN025
     FM201900 17005KT 6SM -SHRA VCTS BKN050CB
     FM202300 VRB03KT P6SM BKN050
     FM210900 VRB03KT 2SM BR BKN015=

USA.gov is the U.S. government's official web portal to all federal, state and local government web resources and services.